sensor_id;sensor_type;location;lat;lon;timestamp;temperature;humidity
49829;DHT22;35723;51.194;5.112;2022-12-20T00:00:16;12.00;99.90
49829;DHT22;35723;51.194;5.112;2022-12-20T00:02:41;12.00;99.90
49829;DHT22;35723;51.194;5.112;2022-12-20T00:05:07;11.90;99.90
49829;DHT22;35723;51.194;5.112;2022-12-20T00:07:33;11.90;99.90
49829;DHT22;35723;51.194;5.112;2022-12-20T00:09:59;11.90;99.90
49829;DHT22;35723;51.194;5.112;2022-12-20T00:12:25;11.90;99.90
49829;DHT22;35723;51.194;5.112;2022-12-20T00:14:51;12.00;99.90
49829;DHT22;35723;51.194;5.112;2022-12-20T00:17:16;11.90;99.90
49829;DHT22;35723;51.194;5.112;2022-12-20T00:19:45;11.90;99.90
49829;DHT22;35723;51.194;5.112;2022-12-20T00:22:10;12.00;99.90
49829;DHT22;35723;51.194;5.112;2022-12-20T00:24:36;12.00;99.90
49829;DHT22;35723;51.194;5.112;2022-12-20T00:27:02;12.00;99.90
49829;DHT22;35723;51.194;5.112;2022-12-20T00:29:27;12.00;99.90
49829;DHT22;35723;51.194;5.112;2022-12-20T00:31:53;11.90;99.90
49829;DHT22;35723;51.194;5.112;2022-12-20T00:34:19;11.90;99.90
49829;DHT22;35723;51.194;5.112;2022-12-20T00:36:45;11.90;99.90
49829;DHT22;35723;51.194;5.112;2022-12-20T00:39:11;11.90;99.90
49829;DHT22;35723;51.194;5.112;2022-12-20T00:41:36;11.90;99.90
49829;DHT22;35723;51.194;5.112;2022-12-20T00:44:03;11.90;99.90
49829;DHT22;35723;51.194;5.112;2022-12-20T00:46:29;12.00;99.90
49829;DHT22;35723;51.194;5.112;2022-12-20T00:48:56;12.00;99.90
49829;DHT22;35723;51.194;5.112;2022-12-20T00:51:24;12.00;99.90
49829;DHT22;35723;51.194;5.112;2022-12-20T00:53:51;12.00;99.90
49829;DHT22;35723;51.194;5.112;2022-12-20T00:56:17;12.10;99.90
49829;DHT22;35723;51.194;5.112;2022-12-20T00:58:43;12.10;99.90
49829;DHT22;35723;51.194;5.112;2022-12-20T01:03:43;12.00;99.90
49829;DHT22;35723;51.194;5.112;2022-12-20T01:06:09;12.00;99.90
49829;DHT22;35723;51.194;5.112;2022-12-20T01:08:34;12.00;99.90
49829;DHT22;35723;51.194;5.112;2022-12-20T01:11:02;12.00;99.90
49829;DHT22;35723;51.194;5.112;2022-12-20T01:13:29;11.80;99.90
49829;DHT22;35723;51.194;5.112;2022-12-20T01:15:55;11.80;99.90
49829;DHT22;35723;51.194;5.112;2022-12-20T01:18:21;11.80;99.90
49829;DHT22;35723;51.194;5.112;2022-12-20T01:20:47;11.80;99.90
49829;DHT22;35723;51.194;5.112;2022-12-20T01:23:13;11.80;99.90
49829;DHT22;35723;51.194;5.112;2022-12-20T01:25:38;11.70;99.90
49829;DHT22;35723;51.194;5.112;2022-12-20T01:28:04;11.70;99.90
49829;DHT22;35723;51.194;5.112;2022-12-20T01:30:30;11.70;99.90
49829;DHT22;35723;51.194;5.112;2022-12-20T01:32:55;11.70;99.90
49829;DHT22;35723;51.194;5.112;2022-12-20T01:35:21;11.60;99.90
49829;DHT22;35723;51.194;5.112;2022-12-20T01:37:47;11.60;99.90
49829;DHT22;35723;51.194;5.112;2022-12-20T01:40:13;11.70;99.90
49829;DHT22;35723;51.194;5.112;2022-12-20T01:42:38;11.70;99.90
49829;DHT22;35723;51.194;5.112;2022-12-20T01:45:10;11.60;99.90
49829;DHT22;35723;51.194;5.112;2022-12-20T01:47:38;11.60;99.90
49829;DHT22;35723;51.194;5.112;2022-12-20T01:50:05;11.70;99.90
49829;DHT22;35723;51.194;5.112;2022-12-20T01:52:43;11.70;99.90
49829;DHT22;35723;51.194;5.112;2022-12-20T01:55:23;11.70;99.90
49829;DHT22;35723;51.194;5.112;2022-12-20T01:58:02;11.70;99.90
49829;DHT22;35723;51.194;5.112;2022-12-20T02:00:29;11.70;99.90
49829;DHT22;35723;51.194;5.112;2022-12-20T02:02:58;11.70;99.90
49829;DHT22;35723;51.194;5.112;2022-12-20T02:05:25;11.70;99.90
49829;DHT22;35723;51.194;5.112;2022-12-20T02:07:52;11.70;99.90
49829;DHT22;35723;51.194;5.112;2022-12-20T02:10:21;11.70;99.90
49829;DHT22;35723;51.194;5.112;2022-12-20T02:12:50;11.70;99.90
49829;DHT22;35723;51.194;5.112;2022-12-20T02:15:43;11.60;99.90
49829;DHT22;35723;51.194;5.112;2022-12-20T02:21:22;11.60;99.90
49829;DHT22;35723;51.194;5.112;2022-12-20T02:29:24;11.60;99.90
49829;DHT22;35723;51.194;5.112;2022-12-20T02:32:13;11.60;99.90
49829;DHT22;35723;51.194;5.112;2022-12-20T02:34:42;11.50;99.90
49829;DHT22;35723;51.194;5.112;2022-12-20T02:37:09;11.50;99.90
49829;DHT22;35723;51.194;5.112;2022-12-20T02:39:37;11.50;99.90
49829;DHT22;35723;51.194;5.112;2022-12-20T02:42:09;11.50;99.90
49829;DHT22;35723;51.194;5.112;2022-12-20T02:44:38;11.50;99.90
49829;DHT22;35723;51.194;5.112;2022-12-20T02:47:28;11.50;99.90
49829;DHT22;35723;51.194;5.112;2022-12-20T02:49:56;11.50;99.90
49829;DHT22;35723;51.194;5.112;2022-12-20T02:52:23;11.50;99.90
49829;DHT22;35723;51.194;5.112;2022-12-20T02:54:54;11.50;99.90
49829;DHT22;35723;51.194;5.112;2022-12-20T03:00:16;11.70;99.90
49829;DHT22;35723;51.194;5.112;2022-12-20T03:02:44;11.60;99.90
49829;DHT22;35723;51.194;5.112;2022-12-20T03:05:28;11.50;99.90
49829;DHT22;35723;51.194;5.112;2022-12-20T03:07:55;11.60;99.90
49829;DHT22;35723;51.194;5.112;2022-12-20T03:10:21;11.60;99.90
49829;DHT22;35723;51.194;5.112;2022-12-20T03:12:47;11.50;99.90
49829;DHT22;35723;51.194;5.112;2022-12-20T03:15:13;11.60;99.90
49829;DHT22;35723;51.194;5.112;2022-12-20T03:17:38;11.60;99.90
49829;DHT22;35723;51.194;5.112;2022-12-20T03:20:06;11.50;99.90
49829;DHT22;35723;51.194;5.112;2022-12-20T03:22:32;11.60;99.90
49829;DHT22;35723;51.194;5.112;2022-12-20T03:24:59;11.50;99.90
49829;DHT22;35723;51.194;5.112;2022-12-20T03:27:25;11.60;99.90
49829;DHT22;35723;51.194;5.112;2022-12-20T03:29:52;11.60;99.90
49829;DHT22;35723;51.194;5.112;2022-12-20T03:32:19;11.50;99.90
49829;DHT22;35723;51.194;5.112;2022-12-20T03:34:44;11.60;99.90
49829;DHT22;35723;51.194;5.112;2022-12-20T03:37:10;11.60;99.90
49829;DHT22;35723;51.194;5.112;2022-12-20T03:39:36;11.70;99.90
49829;DHT22;35723;51.194;5.112;2022-12-20T03:42:01;11.70;99.90
49829;DHT22;35723;51.194;5.112;2022-12-20T03:44:27;11.70;99.90
49829;DHT22;35723;51.194;5.112;2022-12-20T03:46:53;11.70;99.90
49829;DHT22;35723;51.194;5.112;2022-12-20T03:49:18;11.80;99.90
49829;DHT22;35723;51.194;5.112;2022-12-20T03:51:44;11.70;99.90
49829;DHT22;35723;51.194;5.112;2022-12-20T03:54:09;11.90;99.90
49829;DHT22;35723;51.194;5.112;2022-12-20T03:56:35;11.80;99.90
49829;DHT22;35723;51.194;5.112;2022-12-20T03:59:01;11.80;99.90
49829;DHT22;35723;51.194;5.112;2022-12-20T04:01:28;11.90;99.90
49829;DHT22;35723;51.194;5.112;2022-12-20T04:03:54;11.90;99.90
49829;DHT22;35723;51.194;5.112;2022-12-20T04:06:20;11.90;99.90
49829;DHT22;35723;51.194;5.112;2022-12-20T04:08:47;11.80;99.90
49829;DHT22;35723;51.194;5.112;2022-12-20T04:11:12;11.80;99.90
49829;DHT22;35723;51.194;5.112;2022-12-20T04:13:52;11.70;99.90
49829;DHT22;35723;51.194;5.112;2022-12-20T04:16:23;11.90;99.90
49829;DHT22;35723;51.194;5.112;2022-12-20T04:18:49;11.80;99.90
49829;DHT22;35723;51.194;5.112;2022-12-20T04:21:25;11.80;99.90
49829;DHT22;35723;51.194;5.112;2022-12-20T04:23:51;11.80;99.90
49829;DHT22;35723;51.194;5.112;2022-12-20T04:26:17;11.80;99.90
49829;DHT22;35723;51.194;5.112;2022-12-20T04:28:43;11.80;99.90
49829;DHT22;35723;51.194;5.112;2022-12-20T04:31:09;11.80;99.90
49829;DHT22;35723;51.194;5.112;2022-12-20T04:33:35;11.80;99.90
49829;DHT22;35723;51.194;5.112;2022-12-20T04:36:01;11.90;99.90
49829;DHT22;35723;51.194;5.112;2022-12-20T04:38:27;11.80;99.90
49829;DHT22;35723;51.194;5.112;2022-12-20T04:40:54;11.80;99.90
49829;DHT22;35723;51.194;5.112;2022-12-20T04:43:20;11.80;99.90
49829;DHT22;35723;51.194;5.112;2022-12-20T04:45:48;11.80;99.90
49829;DHT22;35723;51.194;5.112;2022-12-20T04:48:14;11.80;99.90
49829;DHT22;35723;51.194;5.112;2022-12-20T04:50:39;11.80;99.90
49829;DHT22;35723;51.194;5.112;2022-12-20T04:53:05;11.80;99.90
49829;DHT22;35723;51.194;5.112;2022-12-20T04:55:50;11.90;99.90
49829;DHT22;35723;51.194;5.112;2022-12-20T04:58:15;11.90;99.90
49829;DHT22;35723;51.194;5.112;2022-12-20T05:00:41;11.80;99.90
49829;DHT22;35723;51.194;5.112;2022-12-20T05:03:07;11.80;99.90
49829;DHT22;35723;51.194;5.112;2022-12-20T05:05:32;11.80;99.90
49829;DHT22;35723;51.194;5.112;2022-12-20T05:07:58;11.70;99.90
49829;DHT22;35723;51.194;5.112;2022-12-20T05:10:24;11.70;99.90
49829;DHT22;35723;51.194;5.112;2022-12-20T05:12:49;11.70;99.90
49829;DHT22;35723;51.194;5.112;2022-12-20T05:15:15;11.70;99.90
49829;DHT22;35723;51.194;5.112;2022-12-20T05:17:41;11.80;99.90
49829;DHT22;35723;51.194;5.112;2022-12-20T05:20:07;11.70;99.90
49829;DHT22;35723;51.194;5.112;2022-12-20T05:22:32;11.70;99.90
49829;DHT22;35723;51.194;5.112;2022-12-20T05:25:16;11.70;99.90
49829;DHT22;35723;51.194;5.112;2022-12-20T05:28:00;11.80;99.90
49829;DHT22;35723;51.194;5.112;2022-12-20T05:30:29;11.80;99.90
49829;DHT22;35723;51.194;5.112;2022-12-20T05:32:55;11.80;99.90
49829;DHT22;35723;51.194;5.112;2022-12-20T05:35:21;11.90;99.90
49829;DHT22;35723;51.194;5.112;2022-12-20T05:37:46;11.90;99.90
49829;DHT22;35723;51.194;5.112;2022-12-20T05:40:12;11.90;99.90
49829;DHT22;35723;51.194;5.112;2022-12-20T05:42:37;11.90;99.90
49829;DHT22;35723;51.194;5.112;2022-12-20T05:45:04;11.80;99.90
49829;DHT22;35723;51.194;5.112;2022-12-20T05:47:30;11.80;99.90
49829;DHT22;35723;51.194;5.112;2022-12-20T05:49:59;11.80;99.90
49829;DHT22;35723;51.194;5.112;2022-12-20T05:52:25;11.90;99.90
49829;DHT22;35723;51.194;5.112;2022-12-20T05:54:51;11.90;99.90
49829;DHT22;35723;51.194;5.112;2022-12-20T05:57:16;11.90;99.90
49829;DHT22;35723;51.194;5.112;2022-12-20T05:59:42;11.90;99.90
49829;DHT22;35723;51.194;5.112;2022-12-20T06:02:08;11.90;99.90
49829;DHT22;35723;51.194;5.112;2022-12-20T06:04:35;11.90;99.90
49829;DHT22;35723;51.194;5.112;2022-12-20T06:07:01;11.80;99.90
49829;DHT22;35723;51.194;5.112;2022-12-20T06:09:27;11.80;99.90
49829;DHT22;35723;51.194;5.112;2022-12-20T06:11:52;11.80;99.90
49829;DHT22;35723;51.194;5.112;2022-12-20T06:14:18;11.80;99.90
49829;DHT22;35723;51.194;5.112;2022-12-20T06:16:44;11.80;99.90
49829;DHT22;35723;51.194;5.112;2022-12-20T06:19:09;11.80;99.90
49829;DHT22;35723;51.194;5.112;2022-12-20T06:21:35;11.80;99.90
49829;DHT22;35723;51.194;5.112;2022-12-20T06:24:01;11.90;99.90
49829;DHT22;35723;51.194;5.112;2022-12-20T06:26:26;11.90;99.90
49829;DHT22;35723;51.194;5.112;2022-12-20T06:28:52;11.90;99.90
49829;DHT22;35723;51.194;5.112;2022-12-20T06:31:21;11.90;99.90
49829;DHT22;35723;51.194;5.112;2022-12-20T06:33:46;11.90;99.90
49829;DHT22;35723;51.194;5.112;2022-12-20T06:36:12;11.80;99.90
49829;DHT22;35723;51.194;5.112;2022-12-20T06:38:38;12.00;99.90
49829;DHT22;35723;51.194;5.112;2022-12-20T06:41:03;11.90;99.90
49829;DHT22;35723;51.194;5.112;2022-12-20T06:43:29;11.80;99.90
49829;DHT22;35723;51.194;5.112;2022-12-20T06:45:54;11.80;99.90
49829;DHT22;35723;51.194;5.112;2022-12-20T06:48:20;11.80;99.90
49829;DHT22;35723;51.194;5.112;2022-12-20T06:50:49;11.80;99.90
49829;DHT22;35723;51.194;5.112;2022-12-20T06:53:14;11.90;99.90
49829;DHT22;35723;51.194;5.112;2022-12-20T06:55:41;11.80;99.90
49829;DHT22;35723;51.194;5.112;2022-12-20T06:58:06;11.90;99.90
49829;DHT22;35723;51.194;5.112;2022-12-20T07:00:32;11.90;99.90
49829;DHT22;35723;51.194;5.112;2022-12-20T07:02:58;11.90;99.90
49829;DHT22;35723;51.194;5.112;2022-12-20T07:05:24;11.90;99.90
49829;DHT22;35723;51.194;5.112;2022-12-20T07:07:49;11.80;99.90
49829;DHT22;35723;51.194;5.112;2022-12-20T07:10:15;11.80;99.90
49829;DHT22;35723;51.194;5.112;2022-12-20T07:12:41;11.80;99.90
49829;DHT22;35723;51.194;5.112;2022-12-20T07:15:07;11.80;99.90
49829;DHT22;35723;51.194;5.112;2022-12-20T07:17:33;11.80;99.90
49829;DHT22;35723;51.194;5.112;2022-12-20T07:19:59;11.90;99.90
49829;DHT22;35723;51.194;5.112;2022-12-20T07:22:25;11.80;99.90
49829;DHT22;35723;51.194;5.112;2022-12-20T07:24:51;11.80;99.90
49829;DHT22;35723;51.194;5.112;2022-12-20T07:27:17;11.90;99.90
49829;DHT22;35723;51.194;5.112;2022-12-20T07:29:42;11.90;99.90
49829;DHT22;35723;51.194;5.112;2022-12-20T07:32:10;12.00;99.90
49829;DHT22;35723;51.194;5.112;2022-12-20T07:34:36;12.00;99.90
49829;DHT22;35723;51.194;5.112;2022-12-20T07:37:02;11.90;99.90
49829;DHT22;35723;51.194;5.112;2022-12-20T07:39:28;12.00;99.90
49829;DHT22;35723;51.194;5.112;2022-12-20T07:41:54;12.00;99.90
49829;DHT22;35723;51.194;5.112;2022-12-20T07:44:20;12.00;99.90
49829;DHT22;35723;51.194;5.112;2022-12-20T07:46:46;11.90;99.90
49829;DHT22;35723;51.194;5.112;2022-12-20T07:49:12;11.90;99.90
49829;DHT22;35723;51.194;5.112;2022-12-20T07:51:42;12.00;99.90
49829;DHT22;35723;51.194;5.112;2022-12-20T07:54:23;12.10;99.90
49829;DHT22;35723;51.194;5.112;2022-12-20T07:56:53;12.10;99.90
49829;DHT22;35723;51.194;5.112;2022-12-20T07:59:25;12.10;99.90
49829;DHT22;35723;51.194;5.112;2022-12-20T08:01:53;12.00;99.90
49829;DHT22;35723;51.194;5.112;2022-12-20T08:04:22;11.90;99.90
49829;DHT22;35723;51.194;5.112;2022-12-20T08:06:49;11.90;99.90
49829;DHT22;35723;51.194;5.112;2022-12-20T08:09:17;11.90;99.90
49829;DHT22;35723;51.194;5.112;2022-12-20T08:11:46;11.90;99.90
49829;DHT22;35723;51.194;5.112;2022-12-20T08:14:12;11.90;99.90
49829;DHT22;35723;51.194;5.112;2022-12-20T08:16:38;11.80;99.90
49829;DHT22;35723;51.194;5.112;2022-12-20T08:19:04;11.80;99.90
49829;DHT22;35723;51.194;5.112;2022-12-20T08:21:30;11.80;99.90
49829;DHT22;35723;51.194;5.112;2022-12-20T08:23:56;11.90;99.90
49829;DHT22;35723;51.194;5.112;2022-12-20T08:26:22;11.70;99.90
49829;DHT22;35723;51.194;5.112;2022-12-20T08:28:47;11.80;99.90
49829;DHT22;35723;51.194;5.112;2022-12-20T08:31:13;11.80;99.90
49829;DHT22;35723;51.194;5.112;2022-12-20T08:33:39;11.80;99.90
49829;DHT22;35723;51.194;5.112;2022-12-20T08:36:08;11.70;99.90
49829;DHT22;35723;51.194;5.112;2022-12-20T08:38:35;11.70;99.90
49829;DHT22;35723;51.194;5.112;2022-12-20T08:41:07;11.70;99.90
49829;DHT22;35723;51.194;5.112;2022-12-20T08:43:33;11.70;99.90
49829;DHT22;35723;51.194;5.112;2022-12-20T08:45:59;11.70;99.90
49829;DHT22;35723;51.194;5.112;2022-12-20T08:48:25;11.60;99.90
49829;DHT22;35723;51.194;5.112;2022-12-20T08:51:00;11.60;99.90
49829;DHT22;35723;51.194;5.112;2022-12-20T08:53:27;11.60;99.90
49829;DHT22;35723;51.194;5.112;2022-12-20T08:55:54;11.60;99.90
49829;DHT22;35723;51.194;5.112;2022-12-20T08:58:27;11.60;99.90
49829;DHT22;35723;51.194;5.112;2022-12-20T09:00:52;11.50;99.90
49829;DHT22;35723;51.194;5.112;2022-12-20T09:03:18;11.50;99.90
49829;DHT22;35723;51.194;5.112;2022-12-20T09:05:45;11.60;99.90
49829;DHT22;35723;51.194;5.112;2022-12-20T09:08:11;11.70;99.90
49829;DHT22;35723;51.194;5.112;2022-12-20T09:10:37;11.70;99.90
49829;DHT22;35723;51.194;5.112;2022-12-20T09:13:02;11.70;99.90
49829;DHT22;35723;51.194;5.112;2022-12-20T09:15:28;11.70;99.90
49829;DHT22;35723;51.194;5.112;2022-12-20T09:17:54;11.80;99.90
49829;DHT22;35723;51.194;5.112;2022-12-20T09:20:20;11.80;99.90
49829;DHT22;35723;51.194;5.112;2022-12-20T09:22:45;11.80;99.90
49829;DHT22;35723;51.194;5.112;2022-12-20T09:25:11;11.80;99.90
49829;DHT22;35723;51.194;5.112;2022-12-20T09:27:37;11.90;99.90
49829;DHT22;35723;51.194;5.112;2022-12-20T09:30:03;11.80;99.90
49829;DHT22;35723;51.194;5.112;2022-12-20T09:32:29;11.90;99.90
49829;DHT22;35723;51.194;5.112;2022-12-20T09:34:54;11.90;99.90
49829;DHT22;35723;51.194;5.112;2022-12-20T09:37:20;11.80;99.90
49829;DHT22;35723;51.194;5.112;2022-12-20T09:39:48;11.80;99.90
49829;DHT22;35723;51.194;5.112;2022-12-20T09:42:23;11.80;99.90
49829;DHT22;35723;51.194;5.112;2022-12-20T09:44:48;11.80;99.90
49829;DHT22;35723;51.194;5.112;2022-12-20T09:47:15;11.70;99.90
49829;DHT22;35723;51.194;5.112;2022-12-20T09:49:47;11.80;99.90
49829;DHT22;35723;51.194;5.112;2022-12-20T10:00:23;11.80;99.90
49829;DHT22;35723;51.194;5.112;2022-12-20T10:02:50;11.70;99.90
49829;DHT22;35723;51.194;5.112;2022-12-20T10:05:19;11.70;99.90
49829;DHT22;35723;51.194;5.112;2022-12-20T10:08:09;11.80;99.90
49829;DHT22;35723;51.194;5.112;2022-12-20T10:13:36;11.70;99.90
49829;DHT22;35723;51.194;5.112;2022-12-20T10:19:04;11.70;99.90
49829;DHT22;35723;51.194;5.112;2022-12-20T10:21:40;11.70;99.90
49829;DHT22;35723;51.194;5.112;2022-12-20T10:24:20;11.70;99.90
49829;DHT22;35723;51.194;5.112;2022-12-20T10:26:50;11.70;99.90
49829;DHT22;35723;51.194;5.112;2022-12-20T10:29:16;11.80;99.90
49829;DHT22;35723;51.194;5.112;2022-12-20T10:31:42;11.70;99.90
49829;DHT22;35723;51.194;5.112;2022-12-20T10:34:08;11.60;99.90
49829;DHT22;35723;51.194;5.112;2022-12-20T10:36:34;11.60;99.90
49829;DHT22;35723;51.194;5.112;2022-12-20T10:39:06;11.70;99.90
49829;DHT22;35723;51.194;5.112;2022-12-20T10:44:24;11.80;99.90
49829;DHT22;35723;51.194;5.112;2022-12-20T10:46:55;11.80;99.90
49829;DHT22;35723;51.194;5.112;2022-12-20T10:51:55;11.80;99.90
49829;DHT22;35723;51.194;5.112;2022-12-20T10:54:44;11.80;99.90
49829;DHT22;35723;51.194;5.112;2022-12-20T10:59:44;11.80;99.90
49829;DHT22;35723;51.194;5.112;2022-12-20T11:02:37;11.80;99.90
49829;DHT22;35723;51.194;5.112;2022-12-20T11:05:20;11.80;99.90
49829;DHT22;35723;51.194;5.112;2022-12-20T11:08:15;11.70;99.90
49829;DHT22;35723;51.194;5.112;2022-12-20T11:10:42;11.80;99.90
49829;DHT22;35723;51.194;5.112;2022-12-20T11:13:22;11.80;99.90
49829;DHT22;35723;51.194;5.112;2022-12-20T11:15:52;11.80;99.90
49829;DHT22;35723;51.194;5.112;2022-12-20T11:23:40;11.70;99.90
49829;DHT22;35723;51.194;5.112;2022-12-20T11:42:27;11.90;99.90
49829;DHT22;35723;51.194;5.112;2022-12-20T11:45:09;11.70;99.90
49829;DHT22;35723;51.194;5.112;2022-12-20T11:50:57;11.70;99.90
49829;DHT22;35723;51.194;5.112;2022-12-20T11:53:39;11.70;99.90
49829;DHT22;35723;51.194;5.112;2022-12-20T11:56:23;11.60;99.90
49829;DHT22;35723;51.194;5.112;2022-12-20T11:59:02;11.70;99.90
49829;DHT22;35723;51.194;5.112;2022-12-20T12:04:29;11.70;99.90
49829;DHT22;35723;51.194;5.112;2022-12-20T12:07:17;11.60;99.90
49829;DHT22;35723;51.194;5.112;2022-12-20T12:09:55;11.60;99.90
49829;DHT22;35723;51.194;5.112;2022-12-20T12:12:49;11.60;99.90
49829;DHT22;35723;51.194;5.112;2022-12-20T12:17:45;11.60;99.90
49829;DHT22;35723;51.194;5.112;2022-12-20T12:23:18;11.70;99.90
49829;DHT22;35723;51.194;5.112;2022-12-20T12:25:46;11.70;99.90
49829;DHT22;35723;51.194;5.112;2022-12-20T12:28:13;11.70;99.90
49829;DHT22;35723;51.194;5.112;2022-12-20T12:30:45;11.70;99.90
49829;DHT22;35723;51.194;5.112;2022-12-20T12:33:26;11.70;99.90
49829;DHT22;35723;51.194;5.112;2022-12-20T12:36:10;11.70;99.90
49829;DHT22;35723;51.194;5.112;2022-12-20T12:38:54;11.70;99.90
49829;DHT22;35723;51.194;5.112;2022-12-20T12:41:32;11.80;99.90
49829;DHT22;35723;51.194;5.112;2022-12-20T12:46:54;11.70;99.90
49829;DHT22;35723;51.194;5.112;2022-12-20T12:49:26;11.80;99.90
49829;DHT22;35723;51.194;5.112;2022-12-20T12:51:56;11.80;99.90
49829;DHT22;35723;51.194;5.112;2022-12-20T12:54:34;11.60;99.90
49829;DHT22;35723;51.194;5.112;2022-12-20T12:57:06;11.70;99.90
49829;DHT22;35723;51.194;5.112;2022-12-20T13:10:01;11.70;99.90
49829;DHT22;35723;51.194;5.112;2022-12-20T13:18:21;11.60;99.90
49829;DHT22;35723;51.194;5.112;2022-12-20T13:21:36;11.50;99.90
49829;DHT22;35723;51.194;5.112;2022-12-20T13:27:00;11.50;99.90
49829;DHT22;35723;51.194;5.112;2022-12-20T13:29:32;11.50;99.90
49829;DHT22;35723;51.194;5.112;2022-12-20T13:31:58;11.60;99.90
49829;DHT22;35723;51.194;5.112;2022-12-20T13:37:28;11.60;99.90
49829;DHT22;35723;51.194;5.112;2022-12-20T13:40:30;11.60;99.90
49829;DHT22;35723;51.194;5.112;2022-12-20T13:42:58;11.50;99.90
49829;DHT22;35723;51.194;5.112;2022-12-20T13:45:28;11.50;99.90
49829;DHT22;35723;51.194;5.112;2022-12-20T13:47:58;11.50;99.90
49829;DHT22;35723;51.194;5.112;2022-12-20T13:50:38;11.50;99.90
49829;DHT22;35723;51.194;5.112;2022-12-20T13:53:05;11.50;99.90
49829;DHT22;35723;51.194;5.112;2022-12-20T13:55:37;11.50;99.90
49829;DHT22;35723;51.194;5.112;2022-12-20T13:58:21;11.30;99.90
49829;DHT22;35723;51.194;5.112;2022-12-20T14:00:49;11.30;99.90
49829;DHT22;35723;51.194;5.112;2022-12-20T14:03:27;11.30;99.90
49829;DHT22;35723;51.194;5.112;2022-12-20T14:06:07;11.20;99.90
49829;DHT22;35723;51.194;5.112;2022-12-20T14:08:37;11.30;99.90
49829;DHT22;35723;51.194;5.112;2022-12-20T14:11:12;11.30;99.90
49829;DHT22;35723;51.194;5.112;2022-12-20T14:13:38;11.40;99.90
49829;DHT22;35723;51.194;5.112;2022-12-20T14:16:12;11.40;99.90
49829;DHT22;35723;51.194;5.112;2022-12-20T14:18:38;11.40;99.90
49829;DHT22;35723;51.194;5.112;2022-12-20T14:21:05;11.40;99.90
49829;DHT22;35723;51.194;5.112;2022-12-20T14:23:46;11.40;99.90
49829;DHT22;35723;51.194;5.112;2022-12-20T14:26:55;11.50;99.90
49829;DHT22;35723;51.194;5.112;2022-12-20T14:29:17;11.60;99.90
49829;DHT22;35723;51.194;5.112;2022-12-20T14:31:45;11.50;99.90
49829;DHT22;35723;51.194;5.112;2022-12-20T14:34:41;11.50;99.90
49829;DHT22;35723;51.194;5.112;2022-12-20T14:37:37;11.50;99.90
49829;DHT22;35723;51.194;5.112;2022-12-20T14:42:38;11.70;99.90
49829;DHT22;35723;51.194;5.112;2022-12-20T14:47:53;11.70;99.90
49829;DHT22;35723;51.194;5.112;2022-12-20T14:50:27;11.70;99.90
49829;DHT22;35723;51.194;5.112;2022-12-20T14:52:53;11.70;99.90
49829;DHT22;35723;51.194;5.112;2022-12-20T14:55:26;11.60;99.90
49829;DHT22;35723;51.194;5.112;2022-12-20T14:57:55;11.60;99.90
49829;DHT22;35723;51.194;5.112;2022-12-20T15:00:29;11.60;99.90
49829;DHT22;35723;51.194;5.112;2022-12-20T15:08:22;11.70;99.90
49829;DHT22;35723;51.194;5.112;2022-12-20T15:13:37;11.60;99.90
49829;DHT22;35723;51.194;5.112;2022-12-20T15:18:44;11.50;99.90
49829;DHT22;35723;51.194;5.112;2022-12-20T15:21:14;11.50;99.90
49829;DHT22;35723;51.194;5.112;2022-12-20T15:23:47;11.60;99.90
49829;DHT22;35723;51.194;5.112;2022-12-20T15:26:15;11.50;99.90
49829;DHT22;35723;51.194;5.112;2022-12-20T15:28:41;11.40;99.90
49829;DHT22;35723;51.194;5.112;2022-12-20T15:31:09;11.40;99.90
49829;DHT22;35723;51.194;5.112;2022-12-20T15:33:37;11.40;99.90
49829;DHT22;35723;51.194;5.112;2022-12-20T15:36:04;11.50;99.90
49829;DHT22;35723;51.194;5.112;2022-12-20T15:38:29;11.50;99.90
49829;DHT22;35723;51.194;5.112;2022-12-20T15:41:02;11.60;99.90
49829;DHT22;35723;51.194;5.112;2022-12-20T15:43:28;11.50;99.90
49829;DHT22;35723;51.194;5.112;2022-12-20T15:45:56;11.40;99.90
49829;DHT22;35723;51.194;5.112;2022-12-20T15:48:22;11.50;99.90
49829;DHT22;35723;51.194;5.112;2022-12-20T15:50:56;11.60;99.90
49829;DHT22;35723;51.194;5.112;2022-12-20T15:53:32;11.60;99.90
49829;DHT22;35723;51.194;5.112;2022-12-20T15:55:59;11.70;99.90
49829;DHT22;35723;51.194;5.112;2022-12-20T15:58:26;11.60;99.90
49829;DHT22;35723;51.194;5.112;2022-12-20T16:00:57;11.60;99.90
49829;DHT22;35723;51.194;5.112;2022-12-20T16:03:30;11.60;99.90
49829;DHT22;35723;51.194;5.112;2022-12-20T16:05:56;11.50;99.90
49829;DHT22;35723;51.194;5.112;2022-12-20T16:08:22;11.60;99.90
49829;DHT22;35723;51.194;5.112;2022-12-20T16:10:50;11.50;99.90
49829;DHT22;35723;51.194;5.112;2022-12-20T16:13:23;11.50;99.90
49829;DHT22;35723;51.194;5.112;2022-12-20T16:15:49;11.50;99.90
49829;DHT22;35723;51.194;5.112;2022-12-20T16:18:16;11.50;99.90
49829;DHT22;35723;51.194;5.112;2022-12-20T16:20:42;11.50;99.90
49829;DHT22;35723;51.194;5.112;2022-12-20T16:23:18;11.40;99.90
49829;DHT22;35723;51.194;5.112;2022-12-20T16:25:45;11.30;99.90
49829;DHT22;35723;51.194;5.112;2022-12-20T16:28:11;11.40;99.90
49829;DHT22;35723;51.194;5.112;2022-12-20T16:30:37;11.40;99.90
49829;DHT22;35723;51.194;5.112;2022-12-20T16:33:02;11.40;99.90
49829;DHT22;35723;51.194;5.112;2022-12-20T16:35:30;11.40;99.90
49829;DHT22;35723;51.194;5.112;2022-12-20T16:37:57;11.50;99.90
49829;DHT22;35723;51.194;5.112;2022-12-20T16:40:26;11.60;99.90
49829;DHT22;35723;51.194;5.112;2022-12-20T16:42:53;11.60;99.90
49829;DHT22;35723;51.194;5.112;2022-12-20T16:45:22;11.50;99.90
49829;DHT22;35723;51.194;5.112;2022-12-20T16:47:48;11.50;99.90
49829;DHT22;35723;51.194;5.112;2022-12-20T16:50:15;11.40;99.90
49829;DHT22;35723;51.194;5.112;2022-12-20T16:52:41;11.30;99.90
49829;DHT22;35723;51.194;5.112;2022-12-20T16:55:14;11.30;99.90
49829;DHT22;35723;51.194;5.112;2022-12-20T16:57:42;11.30;99.90
49829;DHT22;35723;51.194;5.112;2022-12-20T17:00:14;11.30;99.90
49829;DHT22;35723;51.194;5.112;2022-12-20T17:02:41;11.20;99.90
49829;DHT22;35723;51.194;5.112;2022-12-20T17:05:08;11.30;99.90
49829;DHT22;35723;51.194;5.112;2022-12-20T17:07:36;11.40;99.90
49829;DHT22;35723;51.194;5.112;2022-12-20T17:10:02;11.50;99.90
49829;DHT22;35723;51.194;5.112;2022-12-20T17:12:27;11.50;99.90
49829;DHT22;35723;51.194;5.112;2022-12-20T17:14:53;11.50;99.90
49829;DHT22;35723;51.194;5.112;2022-12-20T17:17:18;11.50;99.90
49829;DHT22;35723;51.194;5.112;2022-12-20T17:19:44;11.60;99.90
49829;DHT22;35723;51.194;5.112;2022-12-20T17:22:11;11.60;99.90
49829;DHT22;35723;51.194;5.112;2022-12-20T17:24:37;11.60;99.90
49829;DHT22;35723;51.194;5.112;2022-12-20T17:27:03;11.60;99.90
49829;DHT22;35723;51.194;5.112;2022-12-20T17:29:28;11.60;99.90
49829;DHT22;35723;51.194;5.112;2022-12-20T17:31:54;11.60;99.90